Bay Area Logo

Napa, CA Single Family Real Estate Listings

164 Total Real Estate Listings * Click on table heading to sort
Date Posted Property Type Style Address Price Living Area Lot Size Price/Sq Ft.
2018-01-17 Single Family Bungalow 171 Homewood Avenue Napa, CA 94558 $499,000 855 sq. ft. 5,227 sq. ft. $584
2018-01-16 Single Family Traditional 154 Hartson Street Napa, CA 94559 $630,000 1,065 sq. ft. 7,841 sq. ft. $592
2018-01-16 Single Family Traditional 1167 Whitney Avenue Napa, CA 94559 $429,000 1,336 sq. ft. 5,663 sq. ft. $321
2018-01-16 Single Family Farmhouse 1166 2nd Avenue Napa, CA 94558 $1,950,000 1,876 sq. ft. 85,813 sq. ft. $1,039
2018-01-15 Single Family Ranch; Traditional 2454 Maclennan Street Napa, CA 94558 $650,000 1,348 sq. ft. 6,970 sq. ft. $482
2018-01-15 Single Family Traditional 2130 Holmes Avenue Napa, CA 94559 $459,950 947 sq. ft. 5,227 sq. ft. $486
2018-01-15 Single Family Townhome 1026 Shetler Avenue Napa, CA 94559 $479,000 1,390 sq. ft. 1,307 sq. ft. $345
2018-01-15 Single Family Traditional 101 Mccormick Court Napa, CA 94558 $795,000 2,069 sq. ft. 5,663 sq. ft. $384
2018-01-15 Single Family Contemporary; Custom 2 Old Coach Road Napa, CA 94558 $2,995,000 3,500 sq. ft. 45,302 sq. ft. $856
2018-01-14 Single Family Traditional 74 Harrison Avenue Napa, CA 94558 $469,900 855 sq. ft. 5,663 sq. ft. $550
2018-01-14 Single Family Custom 116 Parkview Lane Napa, CA 94558 $425,000 1,428 sq. ft. 12,197 sq. ft. $298
2018-01-13 Single Family Ranch 2045 West F Street Napa, CA 94558 $775,000 1,772 sq. ft. 15,246 sq. ft. $437
2018-01-13 Single Family Ranch Napa, CA 94558 $489,000 856 sq. ft. 6,098 sq. ft. $571
2018-01-11 Single Family Traditional 2719 Crocker Street Napa, CA 94558 $525,000 1,256 sq. ft. 6,534 sq. ft. $418
2018-01-10 Single Family Ranch 4471 Moffitt Drive Napa, CA 94558 $589,000 1,313 sq. ft. 6,098 sq. ft. $449
2018-01-09 Single Family Contemporary 2108 Lincoln Avenue Napa, CA 94559 $995,000 2,965 sq. ft. 9,148 sq. ft. $336
2018-01-09 Single Family Ranch 2462 Butte Street Napa, CA 94558 $520,000 1,396 sq. ft. 7,841 sq. ft. $372
2018-01-09 Single Family Ranch 2789 Pine Street Napa, CA 94558 $589,000 1,076 sq. ft. 9,583 sq. ft. $547
2018-01-09 Single Family Traditional 57 Harvard Lane Napa, CA 94558 $669,000 1,571 sq. ft. 10,890 sq. ft. $426
2018-01-09 Single Family 710 Pueblo Avenue Napa, CA 94558 $420,000 1,046 sq. ft. 6,534 sq. ft. $402
2018-01-08 Single Family Vintage 2015 Monticello Road Napa, CA 94558 $429,000 1,432 sq. ft. 13,504 sq. ft. $300
2018-01-06 Single Family Ranch 1254 Sierra Avenue Napa, CA 94558 $579,000 1,281 sq. ft. 6,098 sq. ft. $452
2018-01-05 Single Family Craftsman 2561 Wimbledon Street Napa, CA 94558 $559,000 1,559 sq. ft. $359
2018-01-04 Single Family Traditional 1925 Waverly Street Napa, CA 94558 $519,000 1,931 sq. ft. 9,583 sq. ft. $269
2018-01-03 Single Family Craftsman Napa, CA 94558 $489,000 1,200 sq. ft. $408
2018-01-03 Single Family Townhome 11 Valley Club Circle Napa, CA 94558 $645,000 1,434 sq. ft. 2,178 sq. ft. $450
2018-01-02 Single Family Contemporary 2556 Vine Hill Drive Napa, CA 94558 $765,000 2,102 sq. ft. 6,970 sq. ft. $364
2018-01-02 Single Family Traditional 1406 Carol Drive Napa, CA 94558 $499,500 1,015 sq. ft. 7,405 sq. ft. $492
2017-12-30 Single Family Vintage 428 Wilson Street Napa, CA 94559 $675,000 818 sq. ft. 4,792 sq. ft. $825
2017-12-30 Single Family Spanish/Mediterr 3118 Stallings Drive Napa, CA 94558 $725,000 1,591 sq. ft. 7,405 sq. ft. $456
2017-12-29 Single Family Craftsman 1314 Mckinstry Street Napa, CA 94559 $642,000 657 sq. ft. 436 sq. ft. $977
2017-12-27 Single Family 59 Valley Club Circle Napa, CA 94558 $675,000 1,434 sq. ft. 2,178 sq. ft. $471
2017-12-27 Single Family Traditional 1091 Simpkins Road Napa, CA 94558 $5,850,000 5,000 sq. ft. 246,985 sq. ft. $1,170
2017-12-26 Single Family Contemporary 1183 Mountain View Circle Napa, CA 94558 $725,000 1,845 sq. ft. 6,534 sq. ft. $393
2017-12-21 Single Family Contemporary 3300 Scenic Drive Napa, CA 94558 $739,000 2,145 sq. ft. 8,712 sq. ft. $345
2017-12-20 Single Family Contemporary 1642 Rainier Avenue Napa, CA 94558 $655,000 2,464 sq. ft. 10,454 sq. ft. $266
2017-12-19 Single Family Traditional 71 Dewitt Avenue Napa, CA 94558 $469,000 936 sq. ft. 4,792 sq. ft. $501
2017-12-19 Single Family Ranch Napa, CA 94558 $5,740,000 2,000 sq. ft. 871,200 sq. ft. $2,870
2017-12-18 Single Family Spanish/Mediterr 14 Sea Breeze Court Napa, CA 94559 $849,000 2,077 sq. ft. 5,227 sq. ft. $409
2017-12-16 Single Family Ranch 3282 Eugene Court Napa, CA 94558 $695,000 1,822 sq. ft. 9,583 sq. ft. $381
2017-12-16 Single Family Contemporary 706 Casswall Street Napa, CA 94558 $824,000 2,513 sq. ft. $328
2017-12-15 Single Family Traditional 3348 Linda Mesa Way Napa, CA 94558 $865,000 2,116 sq. ft. 23,087 sq. ft. $409
2017-12-14 Single Family 5120 State Highway 128 Napa, CA 94558 $1,000,000 2,108 sq. ft. 4,407,837 sq. ft. $474
2017-12-14 Single Family Contemporary 1130 Rimrock Drive Napa, CA 94558 $475,000 2,205 sq. ft. 12,197 sq. ft. $215
2017-12-13 Single Family Custom 38 Bridgegate Way Napa, CA 94559 $385,000 938 sq. ft. 871 sq. ft. $410
2017-12-13 Single Family Ranch 1103 Larkin Way Napa, CA 94558 $700,000 1,523 sq. ft. 9,148 sq. ft. $460
2017-12-13 Single Family Townhome; Traditional 2082 Eva Street Napa, CA 94559 $625,000 2,109 sq. ft. 2,178 sq. ft. $296
2017-12-13 Single Family Bungalow 4215 Wine Country Court Napa, CA 94558 $679,000 1,907 sq. ft. 3,920 sq. ft. $356
2017-12-13 Single Family Bungalow; Craftsman 4245 Wine Country Court Napa, CA 94558 $759,000 2,143 sq. ft. 3,920 sq. ft. $354
2017-12-11 Single Family Townhome 1044 Shetler Avenue Napa, CA 94559 $499,500 1,390 sq. ft. $359
2017-12-09 Single Family 1741 Pueblo Avenue Napa, CA 94558 $499,995 1,374 sq. ft. 7,841 sq. ft. $364
2017-12-09 Single Family Traditional 633 Montecito Boulevard Napa, CA 94559 $1,825,000 2,513 sq. ft. 71,003 sq. ft. $726
2017-12-09 Single Family Contemporary 2180 Parrish Road Napa, CA 94559 $489,900 1,129 sq. ft. 3,049 sq. ft. $434
2017-12-08 Single Family Custom 1301 Duhig Road Napa, CA 94559 $2,499,000 1,933 sq. ft. 435,600 sq. ft. $1,293
2017-12-08 Single Family 2547 Hidden Valley Lane Napa, CA 94558 $579,000 1,863 sq. ft. 4,792 sq. ft. $311
2017-12-06 Single Family Farmhouse 1205 Hillview Lane Napa, CA 94558 $4,500,000 5,498 sq. ft. 43,560 sq. ft. $818
2017-12-06 Single Family Craftsman 543 Franklin Street Napa, CA 94559 $895,000 1,738 sq. ft. 8,712 sq. ft. $515
2017-12-06 Single Family Contemporary 2479 Pacific Street Napa, CA 94558 $549,000 1,450 sq. ft. 6,098 sq. ft. $379
2017-12-06 Single Family 3522 Shelter Creek Drive Napa, CA 94558 $339,500 1,081 sq. ft. 871 sq. ft. $314
2017-12-06 Single Family Ranch 2763 Old Sonoma Road Napa, CA 94558 $540,000 1,400 sq. ft. 9,148 sq. ft. $386
2017-12-05 Single Family Traditional 9 Golden Gate Circle Napa, CA 94558 $325,000 734 sq. ft. 871 sq. ft. $443
2017-12-02 Single Family Cottage 2131 Hoffman Lane Napa, CA 94558 $2,200,000 1,563 sq. ft. 43,560 sq. ft. $1,408
2017-12-01 Single Family Craftsman 4015 Jefferson Street Napa, CA 94558 $755,000 2,091 sq. ft. 7,405 sq. ft. $361
2017-11-30 Single Family Traditional 521 Putah Creek Road Napa, CA 94558 $474,999 1,973 sq. ft. 43,996 sq. ft. $241
2017-11-29 Single Family Traditional 1021 Arroyo Linda Court Napa, CA 94558 $399,999 1,192 sq. ft. 10,890 sq. ft. $336
2017-11-28 Single Family Traditional 610 Noah Court Napa, CA 94558 $795,000 2,447 sq. ft. 8,276 sq. ft. $325
2017-11-27 Single Family 66 Bellevue Avenue Napa, CA 94558 $499,000 805 sq. ft. 5,663 sq. ft. $620
2017-11-22 Single Family Farmhouse 2588 Redwood Road Napa, CA 94558 $1,250,000 1,967 sq. ft. 31,363 sq. ft. $635
2017-11-21 Single Family Contemporary; Spanish/Mediterr 3741 Beartooth Lane Napa, CA 94558 $1,695,000 3,856 sq. ft. 17,424 sq. ft. $440
2017-11-20 Single Family Traditional 1084 La Londe Lane Napa, CA 94558 $5,643,000 3,173 sq. ft. 435,600 sq. ft. $1,778
2017-11-20 Single Family Victorian 1041 Laurel Street Napa, CA 94559 $749,000 1,688 sq. ft. 2,614 sq. ft. $444
2017-11-19 Single Family Contemporary 237 Frederick Drive Napa, CA 94559 $535,000 1,428 sq. ft. 4,356 sq. ft. $375
2017-11-17 Single Family Traditional 2042 Devonshire Drive Napa, CA 94558 $629,000 1,321 sq. ft. 4,356 sq. ft. $476
2017-11-17 Single Family Contemporary 2929 Conifer Court Napa, CA 94558 $1,259,000 2,410 sq. ft. 39,204 sq. ft. $522
2017-11-16 Single Family Farmhouse 2176 Monticello Road Napa, CA 94558 $1,495,000 2,665 sq. ft. 143,748 sq. ft. $561
2017-11-16 Single Family Ranch 1103 Coombsville Road Napa, CA 94558 $779,000 2,188 sq. ft. 25,265 sq. ft. $356
2017-11-16 Single Family Custom 2175 Park Avenue Napa, CA 94558 $1,295,000 2,058 sq. ft. 19,602 sq. ft. $629
2017-11-15 Single Family Bungalow 2514 Sonoma Street Napa, CA 94558 $465,000 836 sq. ft. 6,098 sq. ft. $556
2017-11-15 Single Family Ranch 7059 Silverado Trail Napa, CA 94558 $2,475,000 2,561 sq. ft. 43,560 sq. ft. $966
2017-11-15 Single Family Craftsman; Custom 1031 Rimrock Drive Napa, CA 94558 $499,000 1,638 sq. ft. 8,712 sq. ft. $305
2017-11-15 Single Family Cottage 2211 Mount Veeder Road Napa, CA 94558 $820,000 1,166 sq. ft. 217,800 sq. ft. $703
2017-11-14 Single Family Traditional 1580 El Centro Avenue Napa, CA 94558 $850,000 2,087 sq. ft. 11,326 sq. ft. $407
2017-11-14 Single Family Traditional 1556 El Centro Avenue Napa, CA 94558 $1,100,000 1,412 sq. ft. 36,590 sq. ft. $779
2017-11-14 Single Family Traditional 519 Seymour Street Napa, CA 94559 $900,000 1,935 sq. ft. 6,970 sq. ft. $465
2017-11-13 Single Family Custom 1498 Center Street Napa, CA 94559 $898,917 2,140 sq. ft. 7,405 sq. ft. $420
2017-11-13 Single Family 3004 Vichy Avenue Napa, CA 94558 $850,000 1,144 sq. ft. 16,553 sq. ft. $743
2017-11-08 Single Family Traditional 2166 Delpha Drive Napa, CA 94558 $495,000 1,141 sq. ft. 6,098 sq. ft. $434
2017-11-07 Single Family 131 Hickory Street Napa, CA 94558 $525,000 1,098 sq. ft. 6,098 sq. ft. $478
2017-11-07 Single Family Craftsman 1649 E Street Napa, CA 94559 $675,000 1,400 sq. ft. 10,454 sq. ft. $482
2017-11-04 Single Family Contemporary 81 Homewood Avenue Napa, CA 94558 $564,000 1,465 sq. ft. 10,019 sq. ft. $385
2017-11-04 Single Family Ranch 3219 Vichy Avenue Napa, CA 94558 $2,490,000 3,900 sq. ft. 119,354 sq. ft. $638
2017-11-01 Single Family Bungalow 1670 E Street Napa, CA 94559 $679,000 1,282 sq. ft. 8,276 sq. ft. $530
2017-11-01 Single Family Traditional 2268 Las Flores Drive Napa, CA 94558 $699,000 2,343 sq. ft. 6,970 sq. ft. $298
2017-10-31 Single Family Traditional 987 Liberty Drive Napa, CA 94559 $759,000 1,672 sq. ft. 7,405 sq. ft. $454
2017-10-31 Single Family Vintage 1941 Oak Street Napa, CA 94559 $836,000 1,217 sq. ft. 6,970 sq. ft. $687
2017-10-31 Single Family Cape Cod 1036 Bell Lane Napa, CA 94558 $1,699,000 2,719 sq. ft. 35,719 sq. ft. $625
2017-10-25 Single Family Farmhouse 5224 Big Ranch Road Napa, CA 94558 $6,995,000 3,320 sq. ft. 89,298 sq. ft. $2,107
2017-10-25 Single Family Contemporary; Craftsman; Farmhouse 460 Monte Vista Court Napa, CA 94559 $3,695,000 4,040 sq. ft. 72,745 sq. ft. $915
2017-10-22 Single Family Contemporary 2541 Vintage Street Napa, CA 94558 $615,000 1,334 sq. ft. 6,098 sq. ft. $461
2017-10-21 Single Family A-Frame 485 Randolph Street Napa, CA 94559 $754,000 806 sq. ft. 3,049 sq. ft. $935
2017-10-17 Single Family Ranch 3010 Vichy Avenue Napa, CA 94558 $1,200,000 2,200 sq. ft. $545
2017-10-16 Single Family Traditional 626 Rio Vista Drive Napa, CA 94558 $539,000 1,912 sq. ft. 5,663 sq. ft. $282
2017-10-15 Single Family Victorian 606 Seminary Street Napa, CA 94559 $1,049,000 1,457 sq. ft. 4,792 sq. ft. $720
2017-10-10 Single Family Cottage 1408 F Street Napa, CA 94559 $799,000 1,988 sq. ft. 4,792 sq. ft. $402
2017-10-08 Single Family 2482 Lennox Street Napa, CA 94558 $779,000 2,128 sq. ft. 9,583 sq. ft. $366
2017-10-06 Single Family Contemporary; Modern/Hi-Tech 3100 Old Sonoma Road Napa, CA 94558 $14,500,000 7,135 sq. ft. 1,518,066 sq. ft. $2,032
2017-10-05 Single Family Craftsman 1762 Oak Street Napa, CA 94559 $1,495,000 2,340 sq. ft. 5,227 sq. ft. $639
2017-10-04 Single Family Bungalow 1409 East Avenue Napa, CA 94559 $838,000 1,412 sq. ft. 5,227 sq. ft. $593
2017-10-04 Single Family Traditional 3690 Columbia Drive Napa, CA 94558 $679,900 1,575 sq. ft. 6,970 sq. ft. $432
2017-09-27 Single Family Ranch 1109 Cayetano Drive Napa, CA 94559 $487,000 1,022 sq. ft. 6,098 sq. ft. $477
2017-09-26 Single Family Bungalow 1690 E Street Napa, CA 94559 $539,900 1,050 sq. ft. 10,454 sq. ft. $514
2017-09-25 Single Family Traditional 405 First Street Napa, CA 94559 $1,995,000 2,901 sq. ft. 64,904 sq. ft. $688
2017-09-22 Single Family Contemporary 1154 Larkin Way Napa, CA 94558 $850,000 2,076 sq. ft. 13,504 sq. ft. $409
2017-09-20 Single Family Ranch 1119 3rd Avenue Napa, CA 94558 $2,490,000 2,400 sq. ft. 65,340 sq. ft. $1,038
2017-09-19 Single Family Victorian; Vintage 406 Franklin Street Napa, CA 94559 $1,349,000 2,534 sq. ft. 7,841 sq. ft. $532
2017-09-19 Single Family Bungalow 2150 Pueblo Avenue Napa, CA 94558 $795,000 760 sq. ft. 44,867 sq. ft. $1,046
2017-09-19 Single Family Contemporary; Modern/Hi-Tech; Traditional 3050 Old Sonoma Road Napa, CA 94558 $2,450,000 2,301 sq. ft. 204,732 sq. ft. $1,065
2017-09-19 Single Family Traditional 1199 Cuttings Wharf Road Napa, CA 94559 $2,495,000 996 sq. ft. 175,982 sq. ft. $2,505
2017-09-15 Single Family Spanish/Mediterr 2240 1st Avenue Napa, CA 94558 $1,589,000 3,200 sq. ft. 105,415 sq. ft. $497
2017-09-14 Single Family Traditional 811 Foster Road Napa, CA 94558 $650,000 2,051 sq. ft. 6,970 sq. ft. $317
2017-09-12 Single Family Contemporary 134 Canyon Drive Napa, CA 94558 $2,000,000 3,039 sq. ft. 15,682 sq. ft. $658
2017-09-12 Single Family 1000 Evans Avenue Napa, CA 94559 $725,000 1,346 sq. ft. 7,405 sq. ft. $539
2017-09-09 Single Family Bungalow 1000 Evans Avenue Napa, CA 94559 $675,900 1,346 sq. ft. 7,405 sq. ft. $502
2017-09-06 Single Family Ranch 71 Grandview Road Napa, CA 94558 $1,500,000 2,217 sq. ft. 871,200 sq. ft. $677
2017-09-05 Single Family Traditional 731 Marsh Drive Napa, CA 94558 $395,000 1,204 sq. ft. 871 sq. ft. $328
2017-09-04 Single Family Bungalow 2421 2nd Street Napa, CA 94559 $535,000 1,116 sq. ft. 4,792 sq. ft. $479
2017-09-02 Single Family Rustic 2089 1st Avenue Napa, CA 94558 $2,500,000 1,964 sq. ft. 130,244 sq. ft. $1,273
2017-08-29 Single Family 642 Chaparral Circle Napa, CA 94558 $2,595,000 4,300 sq. ft. 64,033 sq. ft. $603
2017-08-28 Single Family Traditional 4139 Ortez Court Napa, CA 94558 $739,900 2,343 sq. ft. 9,583 sq. ft. $316
2017-08-26 Single Family 7153 Berryessa Knoxville Road Napa, CA 94558 $1,999,000 3,849 sq. ft. 8,537,760 sq. ft. $519
2017-08-24 Single Family Craftsman 217 Buttercup Court Napa, CA 94559 $929,000 2,486 sq. ft. 6,534 sq. ft. $374
2017-08-23 Single Family Custom 1287 Steele Canyon Road Napa, CA 94558 $799,000 2,528 sq. ft. 209,524 sq. ft. $316
2017-08-16 Single Family Contemporary 1128 Walnut Street Napa, CA 94559 $499,000 1,268 sq. ft. 1,742 sq. ft. $394
2017-08-16 Single Family 15 Nicholas Court Napa, CA 94558 $778,500 2,468 sq. ft. 8,712 sq. ft. $315
2017-08-04 Single Family Contemporary; Custom; Modern/High Tech 7830 Silverado Trail Napa, CA 94558 $13,500,000 2,613,600 sq. ft.
2017-08-01 Single Family Victorian 555 Randolph Street Napa, CA 94559 $1,395,900 2,122 sq. ft. 6,534 sq. ft. $658
2017-08-01 Single Family Ranch 10 Lone Wood Court Napa, CA 94558 $1,345,000 3,082 sq. ft. 10,019 sq. ft. $436
2017-07-20 Single Family Victorian 721 Seminary Street Napa, CA 94559 $1,185,000 2,094 sq. ft. 4,356 sq. ft. $566
2017-07-19 Single Family Farmhouse 2290 Dry Creek Road Napa, CA 94558 $2,000,000 1,587 sq. ft. 167,706 sq. ft. $1,260
2017-07-13 Single Family Traditional 3620 Dover Street Napa, CA 94558 $577,000 1,186 sq. ft. 6,098 sq. ft. $487
2017-07-13 Single Family Farmhouse; French 1050 Olive Hill Lane Napa, CA 94558 $9,800,000 5,284 sq. ft. 223,898 sq. ft. $1,855
2017-07-11 Single Family Ranch 50 Capell Valley Crst Napa, CA 94558 $1,295,000 2,430 sq. ft. 2,639,300 sq. ft. $533
2017-07-05 Single Family Traditional 1013 Toldi Lane Napa, CA 94558 $770,000 2,115 sq. ft. 7,841 sq. ft. $364
2017-06-27 Single Family 410 Stonecrest Drive Napa, CA 94558 $1,875,000 3,619 sq. ft. 125,888 sq. ft. $518
2017-06-16 Single Family Traditional 186 Seymour Street Napa, CA 94559 $1,299,000 1,900 sq. ft. 9,583 sq. ft. $684
2017-06-16 Single Family Craftsman 6560 Dry Creek Road Napa, CA 94558 $2,595,000 2,284 sq. ft. 378,536 sq. ft. $1,136
2017-06-14 Single Family Contemporary; Farmhouse 1871 Mount Veeder Road Napa, CA 94558 $3,850,000 3,457 sq. ft. 1,001,880 sq. ft. $1,114
2017-06-12 Single Family 2591 Wine Country Avenue Napa, CA 94558 $739,000 2,121 sq. ft. 6,098 sq. ft. $348
2017-06-09 Single Family Ranch 1911 Capell Valley Road Napa, CA 94558 $1,250,000 1,170 sq. ft. 871,200 sq. ft. $1,068
2017-06-03 Single Family Craftsman; Farmhouse 19 Buhman Court Napa, CA 94558 $1,100,000 3,239 sq. ft. 20,473 sq. ft. $340
2017-06-02 Single Family Victorian 2031 Main Street Napa, CA 94559 $775,000 2,839 sq. ft. 6,534 sq. ft. $273
2017-05-13 Single Family Craftsman 6091 Dry Creek Road Napa, CA 94558 $1,575,000 2,500 sq. ft. 522,720 sq. ft. $630
2017-05-05 Single Family Mediterranean 39 Regatta Way Napa, CA 94559 $829,000 2,669 sq. ft. 7,100 sq. ft. $311
2017-04-16 Single Family Custom 1515 Maxwell Avenue Napa, CA 94559 $1,850,000 2,638 sq. ft. 338,026 sq. ft. $701
2017-04-15 Single Family Contemporary 54 Glenwood Drive Napa, CA 94559 $507,777 1,391 sq. ft. 6,098 sq. ft. $365
2017-03-30 Single Family Craftsman 4048 Sonoma Highway Road Napa, CA 94559 $275,000 1,750 sq. ft. 130,680 sq. ft. $157
2017-03-29 Single Family Custom; Traditional 3400 Redwood Road Napa, CA 94558 $2,100,000 6,133 sq. ft. 87,991 sq. ft. $342
2017-02-15 Single Family 10 Catalpa Court Napa, CA 94558 $699,000 2,662 sq. ft. 10,890 sq. ft. $263
2017-02-03 Single Family Cottage 1760 Mckinley Road Napa, CA 94558 $1,895,000 1,603 sq. ft. 174,676 sq. ft. $1,182
2016-12-06 Single Family Contemporary 26 Laurel Lane Napa, CA 94558 $899,000 2,860 sq. ft. 11,761 sq. ft. $314
2016-07-21 Single Family Spanish/Mediterr 1350 Hestia Way Napa, CA 94558 $9,300,000 10,000 sq. ft. 555,390 sq. ft. $930
2016-04-25 Single Family Ranch Napa, CA 94558 $1,999,500 1,834 sq. ft. 435,600 sq. ft. $1,090
2016-04-21 Single Family Contemporary; Farmhouse 1122 Monticello Road Napa, CA 94558 $3,399,000 5,700 sq. ft. 155,945 sq. ft. $596
2016-04-20 Single Family Contemporary; Farmhouse 1080 Orchard Avenue Napa, CA 94558 $5,888,000 4,500 sq. ft. 399,445 sq. ft. $1,308